Marcus G. Langseth — WDC6698 — position and weather

sailwx.info

Track history (hours):
 
Tides and Currents Weather Stations Pressure Air Temp Water Temp Dewpoint Dewpoint Depression Visibility Wind Speed Wind Dir Waves Ship Positions

Oceanographic research ship Marcus G. Langseth (USA)

Detailed information on ship capabilities available from ARCUS's ALIAS (Arctic Logistics Information and Support) project.

Owner: Lamont Doherty Earth Observatory-Columbia University, Palisades, NY. More information available from US FCC via Universal Licensing System and Coast Guard Vessel Documentation Center.

Last reported at 2020-Jan-21 21:00 UTC. Time now 2020-Jan-21 22:59 UTC.
Position N 44°36' W 124°00'.

Length 72 m; draft 6.1 m.

Type: Ship. MMSI: 367059880.

Wind from 200 at 11 knots

Barometer 1011.3 mb
Air temperature 10.9 ° C
Dewpoint 6.6 ° C

Date/timePositionNaut miles runAvg speedWind from/ knotsBaromVisibWave heightAir tempDewpointWater temp
2020-Jan-21 21:00N 44°36' W 124°00'0 0.0 200 / 111011.3 10.9 6.6
2020-Jan-21 20:00N 44°36' W 124°00'0 0.0 220 / 131010.9 10.9 6.4
2020-Jan-21 19:00N 44°36' W 124°00'0 0.0 210 / 121010.7 10.4 5.5
2020-Jan-21 18:00N 44°36' W 124°00'0 0.0 190 / 201009.4 10.1 5.2
2020-Jan-21 17:00N 44°36' W 124°00'0 0.0 170 / 151009.1 9.1 4.8
2020-Jan-21 16:00N 44°36' W 124°00'0 0.0 180 / 111008.8 8.4 4.3
2020-Jan-21 15:00N 44°36' W 124°00'0 0.0 150 / 71008.4 7.7 3.6
2020-Jan-21 14:00N 44°36' W 124°00'0 0.0 130 / 61008.0 7.2 3.2
2020-Jan-21 13:00N 44°36' W 124°00'0 0.0 170 / 91007.5 7.0 2.7
2020-Jan-21 12:00N 44°36' W 124°00'0 0.0 140 / 91007.4 7.0 2.7
2020-Jan-21 11:00N 44°36' W 124°00'0 0.0 160 / 151006.9 7.1 3.3
2020-Jan-21 10:00N 44°36' W 124°00'0 0.0 200 / 101007.1 8.0 4.3
2020-Jan-21 09:00N 44°36' W 124°00'0 0.0 210 / 111006.1 8.5 4.9
2020-Jan-21 08:00N 44°36' W 124°00'0 0.0 150 / 81004.3 10.0 5.9
2020-Jan-21 07:00N 44°36' W 124°00'0 0.0 190 / 51004.5 12.1 3.7
2020-Jan-21 06:00N 44°36' W 124°00'0 0.0 150 / 91004.2 13.2 2.4
2020-Jan-21 05:00N 44°36' W 124°00'0 0.0 120 / 111004.8 12.3 2.7
2020-Jan-21 04:00N 44°36' W 124°00'0 0.0 120 / 121005.9 10.9 4.1
2020-Jan-21 03:00N 44°36' W 124°00'0 0.0 120 / 111007.0 11.0 4.1
2020-Jan-21 02:00N 44°36' W 124°00'0 0.0 100 / 81007.6 11.1 4.3
2020-Jan-21 01:00N 44°36' W 124°00'0 0.0 100 / 61008.5 12.2 3.8
2020-Jan-21 00:00N 44°36' W 124°00'0 0.0 140 / 71009.2 13.2 3.6
2020-Jan-20 23:00N 44°36' W 124°00'0 0.0 030 / 21010.1 12.4 6.5
2020-Jan-20 22:00N 44°36' W 124°00'0 0.0 280 / 11010.5 13.0 6.9
2020-Jan-20 21:00N 44°36' W 124°00'0 0.0 110 / 61010.6 13.0 6.6
2020-Jan-20 20:00N 44°36' W 124°00'0 0.0 110 / 61011.6 12.1 7.0
2020-Jan-20 19:00N 44°36' W 124°00'0 0.0 110 / 71012.1 11.5 7.0
2020-Jan-20 18:00N 44°36' W 124°00'0 0.0 110 / 71013.1 10.4 6.8
2020-Jan-20 17:00N 44°36' W 124°00'0 0.0 110 / 71013.1 9.6 6.3
2020-Jan-20 16:00N 44°36' W 124°00'0 0.0 110 / 71013.7 9.4 6.3
2020-Jan-20 15:00N 44°36' W 124°00'0 0.0 110 / 71014.2 9.5 6.8
2020-Jan-20 14:00N 44°36' W 124°00'0 0.0 110 / 71014.7 9.6 6.8
2020-Jan-20 13:00N 44°36' W 124°00'0 0.0 110 / 71014.9 9.6 6.3
2020-Jan-20 12:00N 44°36' W 124°00'0 0.0 110 / 71014.8 9.5 6.1
2020-Jan-20 11:00N 44°36' W 124°00'0 0.0 110 / 71015.2 9.7 6.3
2020-Jan-20 10:00N 44°36' W 124°00'0 0.0 110 / 71015.3 9.7 6.5
2020-Jan-20 09:00N 44°36' W 124°00'0 0.0 110 / 71015.2 9.6 6.6
2020-Jan-20 08:00N 44°36' W 124°00'0 0.0 110 / 71015.3 10.0 6.7
2020-Jan-20 07:00N 44°36' W 124°00'0 0.0 110 / 71015.4 10.0 6.9
2020-Jan-20 06:00N 44°36' W 124°00'0 0.0 110 / 71015.3 10.2 6.8
2020-Jan-20 05:00N 44°36' W 124°00'0 0.0 110 / 71015.9 10.7 7.6
2020-Jan-20 04:00N 44°36' W 124°00'0 0.0 110 / 71015.8 10.8 7.4
2020-Jan-20 03:00N 44°36' W 124°00'0 0.0 110 / 71015.3 11.1 7.5
2020-Jan-20 02:00N 44°36' W 124°00'0 0.0 110 / 71016.1 11.0 7.3
2020-Jan-20 01:00N 44°36' W 124°00'0 0.0 110 / 71016.8 11.4 7.3
2020-Jan-20 00:00N 44°36' W 124°00'0 0.0 110 / 71017.1 11.5 7.4
2020-Jan-19 23:00N 44°36' W 124°00'0 0.0 110 / 71017.5 11.7 7.6
2020-Jan-19 22:00N 44°36' W 124°00'0 0.0 110 / 71017.3 12.6 7.7
2020-Jan-19 21:00N 44°36' W 124°00'0 0.0 110 / 71018.0 16.2 8.8
2020-Jan-19 20:00N 44°36' W 124°00'0 0.0 110 / 71019.0 15.4 8.6
2020-Jan-19 19:00N 44°36' W 124°00'0 0.0 110 / 101020.3 14.2 8.1
2020-Jan-19 18:00N 44°36' W 124°00'0 0.0 110 / 101021.4 12.6 8.0
2020-Jan-19 17:00N 44°36' W 124°00'0 0.0 090 / 111021.4 12.8 7.7
2020-Jan-19 16:00N 44°36' W 124°00'0 0.0 100 / 111021.6 11.9 8.0
2020-Jan-19 15:00N 44°36' W 124°00'0 0.0 100 / 111021.5 12.3 8.2
2020-Jan-19 14:00N 44°36' W 124°00'0 0.0 100 / 111021.7 12.5 8.2
2020-Jan-19 13:00N 44°36' W 124°00'0 0.0 100 / 111022.0 11.9 8.2
2020-Jan-19 12:00N 44°36' W 124°00'0 0.0 080 / 111022.6 11.6 8.3
2020-Jan-19 11:00N 44°36' W 124°00'0 0.0 090 / 101023.2 11.4 7.8
2020-Jan-19 10:00N 44°36' W 124°00'0 0.0 100 / 101023.6 10.8 7.6
2020-Jan-19 09:00N 44°36' W 124°00'0 0.0 100 / 101023.9 10.5 7.3
2020-Jan-19 08:00N 44°36' W 124°00'0 0.0 120 / 91024.1 10.3 7.4
2020-Jan-19 07:00N 44°36' W 124°00'0 0.0 110 / 81024.4 10.0 7.4
2020-Jan-19 06:00N 44°36' W 124°00'0 0.0 120 / 91024.2 9.7 7.1
2020-Jan-19 05:00N 44°36' W 124°00'0 0.0 100 / 91024.4 9.7 7.0
2020-Jan-19 04:00N 44°36' W 124°00'0 0.0 080 / 91024.2 9.6 7.0
2020-Jan-19 03:00N 44°36' W 124°00'0 0.0 110 / 71024.0 9.5 6.9
2020-Jan-19 02:00N 44°36' W 124°00'0 0.0 110 / 71023.9 9.7 7.0
2020-Jan-19 01:00N 44°36' W 124°00'0 0.0 120 / 81023.8 9.5 6.8
2020-Jan-19 00:00N 44°36' W 124°00'0 0.0 130 / 71023.8 9.8 7.1
2020-Jan-18 23:00N 44°36' W 124°00'0 0.0 200 / 131023.7 10.1 7.2
2020-Jan-18 22:00N 44°36' W 124°00'0 0.0 200 / 91023.3 10.0 7.1
2020-Jan-18 21:00N 44°36' W 124°00'0 0.0 180 / 121023.0 10.3 6.5
2020-Jan-18 20:00N 44°36' W 124°00'0 0.0 210 / 131022.9 10.8 6.0
2020-Jan-18 19:00N 44°36' W 124°00'0 0.0 200 / 211022.2 10.7 6.0
2020-Jan-18 18:00N 44°36' W 124°00'0 0.0 190 / 91022.4 9.5 6.4
2020-Jan-18 17:00N 44°36' W 124°00'0 0.0 190 / 121021.6 9.3 5.9
2020-Jan-18 16:00N 44°36' W 124°00'0 0.0 190 / 131020.1 9.7 5.2
2020-Jan-18 15:00N 44°36' W 124°00'0 0.0 180 / 181018.5 10.3 4.7
2020-Jan-18 14:00N 44°36' W 124°00'0 0.0 180 / 141017.7 9.5 4.4
2020-Jan-18 13:00N 44°36' W 124°00'0 0.0 180 / 101017.6 8.5 3.4
2020-Jan-18 12:00N 44°36' W 124°00'0 0.0 160 / 91017.1 8.1 2.5
2020-Jan-18 11:00N 44°36' W 124°00'0 0.0 140 / 61016.9 7.5 2.6
2020-Jan-18 10:00N 44°36' W 124°00'0 0.0 140 / 131017.2 7.7 1.8
2020-Jan-18 09:00N 44°36' W 124°00'0 0.0 140 / 121017.3 8.4 0.8
2020-Jan-18 08:00N 44°36' W 124°00'0 0.0 130 / 141017.6 8.9 0.2
2020-Jan-18 07:00N 44°36' W 124°00'0 0.0 140 / 131017.7 8.8 0.6
2020-Jan-18 06:00N 44°36' W 124°00'0 0.0 120 / 121017.9 8.4 1.2
2020-Jan-18 05:00N 44°36' W 124°00'0 0.0 140 / 181018.2 8.0 1.7
2020-Jan-18 04:00N 44°36' W 124°00'0 0.0 120 / 141018.5 7.4 2.0
2020-Jan-18 03:00N 44°36' W 124°00'0 0.0 120 / 141019.0 7.1 2.3
2020-Jan-18 02:00N 44°36' W 124°00'0 0.0 120 / 141019.5 7.0 2.5
2020-Jan-18 01:00N 44°36' W 124°00'0 0.0 120 / 141020.0 6.7 2.6
2020-Jan-18 00:00N 44°36' W 124°00'0 0.0 120 / 141020.3 6.8 2.7
2020-Jan-17 23:00N 44°36' W 124°00'0 0.0 130 / 121020.9 6.9 2.9
2020-Jan-17 22:00N 44°36' W 124°00'0 0.0 130 / 111020.8 6.8 2.9
2020-Jan-17 21:00N 44°36' W 124°00'0 0.0 130 / 91021.2 6.8 2.7
2020-Jan-17 20:00N 44°36' W 124°00'0 0.0 130 / 71021.6 6.4 2.4
2020-Jan-17 19:00N 44°36' W 124°00'0 0.0 180 / 61021.7 6.2 2.1
2020-Jan-17 18:00N 44°36' W 124°00'0 0.0 110 / 41021.4 5.4 1.4
2020-Jan-17 17:00N 44°36' W 124°00'0 0.0 130 / 71020.3 4.9 1.1
2020-Jan-17 16:00N 44°36' W 124°00'0 0.0 130 / 111019.3 4.4 0.9
2020-Jan-17 15:00N 44°36' W 124°00'0 0.0 140 / 81018.7 4.2 0.8
2020-Jan-17 14:00N 44°36' W 124°00'0 0.0 150 / 81017.7 4.3 0.9
2020-Jan-17 13:00N 44°36' W 124°00'0 0.0 180 / 41017.2 4.2 0.8
2020-Jan-17 12:00N 44°36' W 124°00'0 0.0 120 / 111016.3 3.6 0.2
2020-Jan-17 11:00N 44°36' W 124°00'0 0.0 100 / 61016.2 3.3-0.1
2020-Jan-17 10:00N 44°36' W 124°00'0 0.0 120 / 51015.6 3.2-0.2
2020-Jan-17 09:00N 44°36' W 124°00'0 0.0 080 / 61014.9 3.1-0.2
2020-Jan-17 08:00N 44°36' W 124°00'0 0.0 080 / 51014.7 3.4-0.0
2020-Jan-17 07:00N 44°36' W 124°00'0 0.0 160 / 81014.1 2.6-0.5
2020-Jan-17 06:00N 44°36' W 124°00'0 0.0 130 / 71012.8 2.5-0.5
2020-Jan-17 05:00N 44°36' W 124°00'0 0.0 110 / 61011.8 3.0-0.1
2020-Jan-17 04:00N 44°36' W 124°00'0 0.0 120 / 71011.1 3.3 0.3
2020-Jan-17 03:00N 44°36' W 124°00'0 0.0 110 / 61010.3 3.8 0.8
2020-Jan-17 02:00N 44°36' W 124°00'0 0.0 110 / 41009.6 4.4 1.1
2020-Jan-17 01:00N 44°36' W 124°00'0 0.0 080 / 41008.9 6.1 1.1
2020-Jan-17 00:00N 44°36' W 124°00'0 0.0 310 / 61008.1 7.5-2.2
2020-Jan-16 23:00N 44°36' W 124°00'0 0.0 280 / 51007.3 7.5-0.6
2020-Jan-16 22:00N 44°36' W 124°00'0 0.0 230 / 51006.4 8.2 0.2
2020-Jan-16 21:00N 44°36' W 124°00'0 0.0 350 / 11006.3 7.9-1.0
2020-Jan-16 20:00N 44°36' W 124°00'0 0.0 130 / 31006.4 6.7 1.2
2020-Jan-16 19:00N 44°36' W 124°00'0 0.0 140 / 41006.5 5.5 2.0
2020-Jan-16 18:00N 44°36' W 124°00'0 0.0 120 / 81006.4 4.2 0.9
2020-Jan-16 17:00N 44°36' W 124°00'0 0.0 110 / 71006.0 3.4 0.4
2020-Jan-16 16:00N 44°36' W 124°00'0 0.0 090 / 91005.0 3.0-0.0
2020-Jan-16 15:00N 44°36' W 124°00'0 0.0 110 / 81004.5 3.5 0.5
2020-Jan-16 14:00N 44°36' W 124°00'0 0.0 180 / 11004.4 4.2 0.9
2020-Jan-16 13:00N 44°36' W 124°00'0 0.0 100 / 51003.5 4.0 0.6
2020-Jan-16 12:00N 44°36' W 124°00'0 0.0 110 / 61003.6 4.1 0.6
2020-Jan-16 11:00N 44°36' W 124°00'0 0.0 160 / 41003.6 4.3 0.9
2020-Jan-16 10:00N 44°36' W 124°00'0 0.0 180 / 71002.9 4.5 1.0
2020-Jan-16 09:00N 44°36' W 124°00'0 0.0 140 / 81002.0 4.6 1.1
2020-Jan-16 08:00N 44°36' W 124°00'0 0.0 090 / 71001.8 4.7 1.2
2020-Jan-16 07:00N 44°36' W 124°00'0 0.0 160 / 101001.7 4.8 1.2
2020-Jan-16 06:00N 44°36' W 124°00'0 0.0 130 / 61001.0 4.8 1.2
2020-Jan-16 05:00N 44°36' W 124°00'0 0.0 160 / 101000.3 4.8 1.1
2020-Jan-16 04:00N 44°36' W 124°00'0 0.0 160 / 111000.2 5.2 1.3
2020-Jan-16 03:00N 44°36' W 124°00'0 0.0 160 / 14999.6 5.6 1.7
2020-Jan-16 02:00N 44°36' W 124°00'0 0.0 160 / 8999.1 5.8 1.8
2020-Jan-16 01:00N 44°36' W 124°00'0 0.0 160 / 18997.9 5.7 1.1
2020-Jan-16 00:00N 44°36' W 124°00'0 0.0 150 / 14998.1 5.5 1.3
2020-Jan-15 23:00N 44°36' W 124°00'0 0.0 140 / 14998.0 5.0 1.0
2020-Jan-15 22:00N 44°36' W 124°00'0 0.0 160 / 22998.3 5.7 2.2
2020-Jan-15 21:00N 44°36' W 124°00'0 0.0 170 / 14999.0 6.7 1.9
2020-Jan-15 20:00N 44°36' W 124°00'0 0.0 150 / 17998.5 7.9-0.6
2020-Jan-15 19:00N 44°36' W 124°00'0 0.0 150 / 241000.1 8.6-1.9
2020-Jan-15 18:00N 44°36' W 124°00'0 0.0 150 / 201002.4 7.3-2.3
2020-Jan-15 17:00N 44°36' W 124°00'0 0.0 130 / 151004.5 6.5-2.0
2020-Jan-15 16:00N 44°36' W 124°00'0 0.0 130 / 191006.3 6.2-1.6
2020-Jan-15 15:00N 44°36' W 124°00'0 0.0 130 / 191008.1 5.7-1.4
2020-Jan-15 14:00N 44°36' W 124°00'0 0.0 120 / 151009.7 5.1-1.0
2020-Jan-15 13:00N 44°36' W 124°00'0 0.0 120 / 161011.3 4.2-1.3
2020-Jan-15 12:00N 44°36' W 124°00'0 0.0 090 / 111013.0 3.1-2.7
2020-Jan-15 11:00N 44°36' W 124°00'0 0.0 100 / 91014.6 3.0-2.3
2020-Jan-15 10:00N 44°36' W 124°00'0 0.0 110 / 101016.0 3.2-2.0
2020-Jan-15 09:00N 44°36' W 124°00'0 0.0 080 / 81016.8 3.1-2.0
2020-Jan-15 08:00N 44°36' W 124°00'0 0.0 090 / 81018.0 2.6-2.2
2020-Jan-15 07:00N 44°36' W 124°00'0 0.0 090 / 81018.9 2.7-2.3
2020-Jan-15 06:00N 44°36' W 124°00'0 0.0 130 / 71019.6 3.1-2.4
2020-Jan-15 05:00N 44°36' W 124°00'0 0.0 120 / 91019.8 2.1-1.8
2020-Jan-15 04:00N 44°36' W 124°00'0 0.0 100 / 61020.3 2.3-1.7
2020-Jan-15 03:00N 44°36' W 124°00'0 0.0 070 / 51020.6 2.4-1.3
2020-Jan-15 02:00N 44°36' W 124°00'0 0.0 100 / 61020.4 2.7-0.9
2020-Jan-15 01:00N 44°36' W 124°00'0 0.0 090 / 51020.4 3.4-1.6
2020-Jan-15 00:00N 44°36' W 124°00'0 0.0 200 / 71020.4 3.9-2.8
2020-Jan-14 23:00N 44°36' W 124°00'0 0.0 280 / 131020.5 3.6-1.4
2020-Jan-14 22:00N 44°36' W 124°00'0 0.0 330 / 51019.9 4.0-1.8
2020-Jan-14 21:00N 44°36' W 124°00'0 0.0 300 / 81019.3 5.5-4.6
2020-Jan-14 20:00N 44°36' W 124°00'0 0.0 310 / 101019.4 4.3-2.6
2020-Jan-14 19:00N 44°36' W 124°00'0 0.0 010 / 81019.7 3.1-1.7
2020-Jan-14 18:00N 44°36' W 124°00'0 0.0 340 / 121018.8 3.8-2.0
2020-Jan-14 17:00N 44°36' W 124°00'0 0.0 330 / 91017.7 4.3-1.3
2020-Jan-14 16:00N 44°36' W 124°00'0 0.0 300 / 131016.0 5.8-2.0
2020-Jan-14 15:00N 44°36' W 124°00'0 0.0 010 / 61015.5 4.8-0.5
2020-Jan-14 14:00N 44°36' W 124°00'0 0.0 350 / 91014.9 4.7-0.7
2020-Jan-14 13:00N 44°36' W 124°00'0 0.0 310 / 71013.8 5.4-0.7
2020-Jan-14 12:00N 44°36' W 124°00'0 0.0 290 / 131013.4 5.1-0.1
2020-Jan-14 11:00N 44°36' W 124°00'0 0.0 320 / 91013.4 4.8 0.6
2020-Jan-14 10:00N 44°36' W 124°00'0 0.0 270 / 171012.5 6.2 0.3
2020-Jan-14 09:00N 44°36' W 124°00'0 0.0 100 / 81012.2 3.9 1.0
2020-Jan-14 08:00N 44°36' W 124°00'0 0.0 110 / 61012.4 4.1 0.5
2020-Jan-14 07:00N 44°36' W 124°00'0 0.0 340 / 101012.8 3.4-0.2
2020-Jan-14 06:00N 44°36' W 124°00'0 0.0 340 / 101012.3 4.4 0.9
2020-Jan-14 05:00N 44°36' W 124°00'0 0.0 150 / 41011.7 5.3 2.0
2020-Jan-14 04:00N 44°36' W 124°00'0 0.0 130 / 31011.6 4.9 2.1
2020-Jan-14 03:00N 44°36' W 124°00'0 0.0 120 / 31011.4 4.7 1.8
2020-Jan-14 02:00N 44°36' W 124°00'0 0.0 120 / 21011.1 4.5 1.9
2020-Jan-14 01:00N 44°36' W 124°00'0 0.0 150 / 31010.8 4.2 1.6
2020-Jan-14 00:00N 44°36' W 124°00'0 0.0 150 / 81010.4 4.0 1.3
2020-Jan-13 23:00N 44°36' W 124°00'0 0.0 100 / 111010.0 3.5 0.7
2020-Jan-13 22:00N 44°36' W 124°00'0 0.0 110 / 61009.3 3.4 0.5
2020-Jan-13 21:00N 44°36' W 124°00'0 0.0 090 / 91009.6 3.5 0.6
2020-Jan-13 20:00N 44°36' W 124°00'0 0.0 090 / 81010.7 4.0 1.0
2020-Jan-13 19:00N 44°36' W 124°00'0 0.0 120 / 51011.8 4.5 1.4
2020-Jan-13 18:00N 44°36' W 124°00'0 0.0 200 / 31012.8 4.8 1.2
2020-Jan-13 17:00N 44°36' W 124°00'0 0.0 220 / 81013.2 5.1 0.7
2020-Jan-13 16:00N 44°36' W 124°00'0 0.0 280 / 141013.3 6.2 0.3
2020-Jan-13 15:00N 44°36' W 124°00'0 0.0 230 / 131012.8 7.5 1.3
2020-Jan-13 14:00N 44°36' W 124°00'0 0.0 280 / 81014.2 6.5 0.9
2020-Jan-13 13:00N 44°36' W 124°00'0 0.0 270 / 121014.4 7.1 1.7
2020-Jan-13 12:00N 44°36' W 124°00'0 0.0 300 / 131014.9 7.1 0.5
2020-Jan-13 11:00N 44°36' W 124°00'0 0.0 300 / 161015.2 7.2 0.8
2020-Jan-13 10:00N 44°36' W 124°00'0 0.0 280 / 151015.1 7.3 0.1
2020-Jan-13 09:00N 44°36' W 124°00'0 0.0 270 / 191014.8 7.2 0.2
2020-Jan-13 08:00N 44°36' W 124°00'0 0.0 290 / 151014.5 6.9-0.1
2020-Jan-13 07:00N 44°36' W 124°00'0 0.0 280 / 151014.6 7.5-0.5
2020-Jan-13 06:00N 44°36' W 124°00'0 0.0 280 / 131014.4 7.0 0.5
2020-Jan-13 05:00N 44°36' W 124°00'0 0.0 270 / 141013.9 7.1-0.5
2020-Jan-13 04:00N 44°36' W 124°00'0 0.0 280 / 101013.8 7.5-1.9
2020-Jan-13 03:00N 44°36' W 124°00'0 0.0 290 / 141013.5 7.2-0.3
2020-Jan-13 02:00N 44°36' W 124°00'0 0.0 270 / 181013.1 6.2-1.4
2020-Jan-13 01:00N 44°36' W 124°00'0 0.0 320 / 201012.7 6.1-0.7
2020-Jan-13 00:00N 44°36' W 124°00'0 0.0 310 / 181012.3 7.2-0.3
2020-Jan-12 23:00N 44°36' W 124°00'0 0.0 320 / 201011.8 7.7-0.8
2020-Jan-12 22:00N 44°36' W 124°00'0 0.0 310 / 201010.7 8.1 1.3
2020-Jan-12 21:00N 44°36' W 124°00'0 0.0 280 / 161009.9 8.0 1.9
2020-Jan-12 20:00N 44°36' W 124°00'0 0.0 300 / 201009.7 8.5 3.0
2020-Jan-12 19:00N 44°36' W 124°00'0 0.0 270 / 231009.7 8.0 4.3
2020-Jan-12 18:00N 44°36' W 124°00'0 0.0 250 / 141010.4 9.6 4.1
2020-Jan-12 17:00N 44°36' W 124°00'0 0.0 270 / 221010.6 8.0 3.5
2020-Jan-12 16:00N 44°36' W 124°00'0 0.0 270 / 181010.5 9.3 4.0
2020-Jan-12 15:00N 44°36' W 124°00'0 0.0 230 / 151010.3 9.0 4.8
2020-Jan-12 14:00N 44°36' W 124°00'0 0.0 240 / 151011.4 10.1 5.7
2020-Jan-12 13:00N 44°36' W 124°00'0 0.0 240 / 181011.8 9.6 4.7
2020-Jan-12 12:00N 44°36' W 124°00'0 0.0 260 / 141012.9 9.8 5.6
2020-Jan-12 11:00N 44°36' W 124°00'0 0.0 270 / 231013.6 9.4 4.4
2020-Jan-12 10:00N 44°36' W 124°00'0 0.0 240 / 131014.8 9.9 5.7
2020-Jan-12 09:00N 44°36' W 124°00'0 0.0 250 / 221014.7 9.3 5.7
2020-Jan-12 08:00N 44°36' W 124°00'0 0.0 210 / 151016.0 9.1 5.3
2020-Jan-12 07:00N 44°36' W 124°00'0 0.0 240 / 121017.4 9.2 4.4
2020-Jan-12 06:00N 44°36' W 124°00'0 0.0 240 / 141018.3 8.9 4.2
2020-Jan-12 05:00N 44°36' W 124°00'0 0.0 260 / 121019.2 8.4 3.7
2020-Jan-12 04:00N 44°36' W 124°00'0 0.0 270 / 171019.9 7.8 2.6
2020-Jan-12 03:00N 44°36' W 124°00'0 0.0 270 / 121020.7 7.9 3.5
2020-Jan-12 02:00N 44°36' W 124°00'0 0.0 280 / 221020.6 7.9 3.1
2020-Jan-12 01:00N 44°36' W 124°00'0 0.0 260 / 111021.1 8.9 4.1
2020-Jan-12 00:00N 44°36' W 124°00'0 0.0 270 / 111022.3 7.8 3.8
2020-Jan-11 23:00N 44°36' W 124°00'0 0.0 250 / 71022.3 9.0 3.3
2020-Jan-11 22:00N 44°36' W 124°00'0 0.0 290 / 121022.1 8.9 0.8
2020-Jan-11 21:00N 44°36' W 124°00'   280 / 151021.5 9.3 1.8
Track history (hours):
 
Tides and Currents Weather Stations Pressure Air Temp Water Temp Dewpoint Dewpoint Depression Visibility Wind Speed Wind Dir Waves Ship Positions

Oceanographic research ship Marcus G. Langseth (USA)

Detailed information on ship capabilities available from ARCUS's ALIAS (Arctic Logistics Information and Support) project.

Owner: Lamont Doherty Earth Observatory-Columbia University, Palisades, NY. More information available from US FCC via Universal Licensing System and Coast Guard Vessel Documentation Center.

Last reported at 2020-Jan-21 21:00 UTC. Time now 2020-Jan-21 22:59 UTC.
Position N 44°36' W 124°00'.

Length 72 m; draft 6.1 m.

Type: Ship. MMSI: 367059880.

Wind from 200 at 11 knots

Barometer 1011.3 mb
Air temperature 10.9 ° C
Dewpoint 6.6 ° C

Date/timePositionNaut miles runAvg speedWind from/ knotsBaromVisibWave heightAir tempDewpointWater temp
2020-Jan-21 21:00N 44°36' W 124°00'0 0.0 200 / 111011.3 10.9 6.6
2020-Jan-21 20:00N 44°36' W 124°00'0 0.0 220 / 131010.9 10.9 6.4
2020-Jan-21 19:00N 44°36' W 124°00'0 0.0 210 / 121010.7 10.4 5.5
2020-Jan-21 18:00N 44°36' W 124°00'0 0.0 190 / 201009.4 10.1 5.2
2020-Jan-21 17:00N 44°36' W 124°00'0 0.0 170 / 151009.1 9.1 4.8
2020-Jan-21 16:00N 44°36' W 124°00'0 0.0 180 / 111008.8 8.4 4.3
2020-Jan-21 15:00N 44°36' W 124°00'0 0.0 150 / 71008.4 7.7 3.6
2020-Jan-21 14:00N 44°36' W 124°00'0 0.0 130 / 61008.0 7.2 3.2
2020-Jan-21 13:00N 44°36' W 124°00'0 0.0 170 / 91007.5 7.0 2.7
2020-Jan-21 12:00N 44°36' W 124°00'0 0.0 140 / 91007.4 7.0 2.7
2020-Jan-21 11:00N 44°36' W 124°00'0 0.0 160 / 151006.9 7.1 3.3
2020-Jan-21 10:00N 44°36' W 124°00'0 0.0 200 / 101007.1 8.0 4.3
2020-Jan-21 09:00N 44°36' W 124°00'0 0.0 210 / 111006.1 8.5 4.9
2020-Jan-21 08:00N 44°36' W 124°00'0 0.0 150 / 81004.3 10.0 5.9
2020-Jan-21 07:00N 44°36' W 124°00'0 0.0 190 / 51004.5 12.1 3.7
2020-Jan-21 06:00N 44°36' W 124°00'0 0.0 150 / 91004.2 13.2 2.4
2020-Jan-21 05:00N 44°36' W 124°00'0 0.0 120 / 111004.8 12.3 2.7
2020-Jan-21 04:00N 44°36' W 124°00'0 0.0 120 / 121005.9 10.9 4.1
2020-Jan-21 03:00N 44°36' W 124°00'0 0.0 120 / 111007.0 11.0 4.1
2020-Jan-21 02:00N 44°36' W 124°00'0 0.0 100 / 81007.6 11.1 4.3
2020-Jan-21 01:00N 44°36' W 124°00'0 0.0 100 / 61008.5 12.2 3.8
2020-Jan-21 00:00N 44°36' W 124°00'0 0.0 140 / 71009.2 13.2 3.6
2020-Jan-20 23:00N 44°36' W 124°00'0 0.0 030 / 21010.1 12.4 6.5
2020-Jan-20 22:00N 44°36' W 124°00'0 0.0 280 / 11010.5 13.0 6.9
2020-Jan-20 21:00N 44°36' W 124°00'0 0.0 110 / 61010.6 13.0 6.6
2020-Jan-20 20:00N 44°36' W 124°00'0 0.0 110 / 61011.6 12.1 7.0
2020-Jan-20 19:00N 44°36' W 124°00'0 0.0 110 / 71012.1 11.5 7.0
2020-Jan-20 18:00N 44°36' W 124°00'0 0.0 110 / 71013.1 10.4 6.8
2020-Jan-20 17:00N 44°36' W 124°00'0 0.0 110 / 71013.1 9.6 6.3
2020-Jan-20 16:00N 44°36' W 124°00'0 0.0 110 / 71013.7 9.4 6.3
2020-Jan-20 15:00N 44°36' W 124°00'0 0.0 110 / 71014.2 9.5 6.8
2020-Jan-20 14:00N 44°36' W 124°00'0 0.0 110 / 71014.7 9.6 6.8
2020-Jan-20 13:00N 44°36' W 124°00'0 0.0 110 / 71014.9 9.6 6.3
2020-Jan-20 12:00N 44°36' W 124°00'0 0.0 110 / 71014.8 9.5 6.1
2020-Jan-20 11:00N 44°36' W 124°00'0 0.0 110 / 71015.2 9.7 6.3
2020-Jan-20 10:00N 44°36' W 124°00'0 0.0 110 / 71015.3 9.7 6.5
2020-Jan-20 09:00N 44°36' W 124°00'0 0.0 110 / 71015.2 9.6 6.6
2020-Jan-20 08:00N 44°36' W 124°00'0 0.0 110 / 71015.3 10.0 6.7
2020-Jan-20 07:00N 44°36' W 124°00'0 0.0 110 / 71015.4 10.0 6.9
2020-Jan-20 06:00N 44°36' W 124°00'0 0.0 110 / 71015.3 10.2 6.8
2020-Jan-20 05:00N 44°36' W 124°00'0 0.0 110 / 71015.9 10.7 7.6
2020-Jan-20 04:00N 44°36' W 124°00'0 0.0 110 / 71015.8 10.8 7.4
2020-Jan-20 03:00N 44°36' W 124°00'0 0.0 110 / 71015.3 11.1 7.5
2020-Jan-20 02:00N 44°36' W 124°00'0 0.0 110 / 71016.1 11.0 7.3
2020-Jan-20 01:00N 44°36' W 124°00'0 0.0 110 / 71016.8 11.4 7.3
2020-Jan-20 00:00N 44°36' W 124°00'0 0.0 110 / 71017.1 11.5 7.4
2020-Jan-19 23:00N 44°36' W 124°00'0 0.0 110 / 71017.5 11.7 7.6
2020-Jan-19 22:00N 44°36' W 124°00'0 0.0 110 / 71017.3 12.6 7.7
2020-Jan-19 21:00N 44°36' W 124°00'0 0.0 110 / 71018.0 16.2 8.8
2020-Jan-19 20:00N 44°36' W 124°00'0 0.0 110 / 71019.0 15.4 8.6
2020-Jan-19 19:00N 44°36' W 124°00'0 0.0 110 / 101020.3 14.2 8.1
2020-Jan-19 18:00N 44°36' W 124°00'0 0.0 110 / 101021.4 12.6 8.0
2020-Jan-19 17:00N 44°36' W 124°00'0 0.0 090 / 111021.4 12.8 7.7
2020-Jan-19 16:00N 44°36' W 124°00'0 0.0 100 / 111021.6 11.9 8.0
2020-Jan-19 15:00N 44°36' W 124°00'0 0.0 100 / 111021.5 12.3 8.2
2020-Jan-19 14:00N 44°36' W 124°00'0 0.0 100 / 111021.7 12.5 8.2
2020-Jan-19 13:00N 44°36' W 124°00'0 0.0 100 / 111022.0 11.9 8.2
2020-Jan-19 12:00N 44°36' W 124°00'0 0.0 080 / 111022.6 11.6 8.3
2020-Jan-19 11:00N 44°36' W 124°00'0 0.0 090 / 101023.2 11.4 7.8
2020-Jan-19 10:00N 44°36' W 124°00'0 0.0 100 / 101023.6 10.8 7.6
2020-Jan-19 09:00N 44°36' W 124°00'0 0.0 100 / 101023.9 10.5 7.3
2020-Jan-19 08:00N 44°36' W 124°00'0 0.0 120 / 91024.1 10.3 7.4
2020-Jan-19 07:00N 44°36' W 124°00'0 0.0 110 / 81024.4 10.0 7.4
2020-Jan-19 06:00N 44°36' W 124°00'0 0.0 120 / 91024.2 9.7 7.1
2020-Jan-19 05:00N 44°36' W 124°00'0 0.0 100 / 91024.4 9.7 7.0
2020-Jan-19 04:00N 44°36' W 124°00'0 0.0 080 / 91024.2 9.6 7.0
2020-Jan-19 03:00N 44°36' W 124°00'0 0.0 110 / 71024.0 9.5 6.9
2020-Jan-19 02:00N 44°36' W 124°00'0 0.0 110 / 71023.9 9.7 7.0
2020-Jan-19 01:00N 44°36' W 124°00'0 0.0 120 / 81023.8 9.5 6.8
2020-Jan-19 00:00N 44°36' W 124°00'0 0.0 130 / 71023.8 9.8 7.1
2020-Jan-18 23:00N 44°36' W 124°00'0 0.0 200 / 131023.7 10.1 7.2
2020-Jan-18 22:00N 44°36' W 124°00'0 0.0 200 / 91023.3 10.0 7.1
2020-Jan-18 21:00N 44°36' W 124°00'0 0.0 180 / 121023.0 10.3 6.5
2020-Jan-18 20:00N 44°36' W 124°00'0 0.0 210 / 131022.9 10.8 6.0
2020-Jan-18 19:00N 44°36' W 124°00'0 0.0 200 / 211022.2 10.7 6.0
2020-Jan-18 18:00N 44°36' W 124°00'0 0.0 190 / 91022.4 9.5 6.4
2020-Jan-18 17:00N 44°36' W 124°00'0 0.0 190 / 121021.6 9.3 5.9
2020-Jan-18 16:00N 44°36' W 124°00'0 0.0 190 / 131020.1 9.7 5.2
2020-Jan-18 15:00N 44°36' W 124°00'0 0.0 180 / 181018.5 10.3 4.7
2020-Jan-18 14:00N 44°36' W 124°00'0 0.0 180 / 141017.7 9.5 4.4
2020-Jan-18 13:00N 44°36' W 124°00'0 0.0 180 / 101017.6 8.5 3.4
2020-Jan-18 12:00N 44°36' W 124°00'0 0.0 160 / 91017.1 8.1 2.5
2020-Jan-18 11:00N 44°36' W 124°00'0 0.0 140 / 61016.9 7.5 2.6
2020-Jan-18 10:00N 44°36' W 124°00'0 0.0 140 / 131017.2 7.7 1.8
2020-Jan-18 09:00N 44°36' W 124°00'0 0.0 140 / 121017.3 8.4 0.8
2020-Jan-18 08:00N 44°36' W 124°00'0 0.0 130 / 141017.6 8.9 0.2
2020-Jan-18 07:00N 44°36' W 124°00'0 0.0 140 / 131017.7 8.8 0.6
2020-Jan-18 06:00N 44°36' W 124°00'0 0.0 120 / 121017.9 8.4 1.2
2020-Jan-18 05:00N 44°36' W 124°00'0 0.0 140 / 181018.2 8.0 1.7
2020-Jan-18 04:00N 44°36' W 124°00'0 0.0 120 / 141018.5 7.4 2.0
2020-Jan-18 03:00N 44°36' W 124°00'0 0.0 120 / 141019.0 7.1 2.3
2020-Jan-18 02:00N 44°36' W 124°00'0 0.0 120 / 141019.5 7.0 2.5
2020-Jan-18 01:00N 44°36' W 124°00'0 0.0 120 / 141020.0 6.7 2.6
2020-Jan-18 00:00N 44°36' W 124°00'0 0.0 120 / 141020.3 6.8 2.7
2020-Jan-17 23:00N 44°36' W 124°00'0 0.0 130 / 121020.9 6.9 2.9
2020-Jan-17 22:00N 44°36' W 124°00'0 0.0 130 / 111020.8 6.8 2.9
2020-Jan-17 21:00N 44°36' W 124°00'0 0.0 130 / 91021.2 6.8 2.7
2020-Jan-17 20:00N 44°36' W 124°00'0 0.0 130 / 71021.6 6.4 2.4
2020-Jan-17 19:00N 44°36' W 124°00'0 0.0 180 / 61021.7 6.2 2.1
2020-Jan-17 18:00N 44°36' W 124°00'0 0.0 110 / 41021.4 5.4 1.4
2020-Jan-17 17:00N 44°36' W 124°00'0 0.0 130 / 71020.3 4.9 1.1
2020-Jan-17 16:00N 44°36' W 124°00'0 0.0 130 / 111019.3 4.4 0.9
2020-Jan-17 15:00N 44°36' W 124°00'0 0.0 140 / 81018.7 4.2 0.8
2020-Jan-17 14:00N 44°36' W 124°00'0 0.0 150 / 81017.7 4.3 0.9
2020-Jan-17 13:00N 44°36' W 124°00'0 0.0 180 / 41017.2 4.2 0.8
2020-Jan-17 12:00N 44°36' W 124°00'0 0.0 120 / 111016.3 3.6 0.2
2020-Jan-17 11:00N 44°36' W 124°00'0 0.0 100 / 61016.2 3.3-0.1
2020-Jan-17 10:00N 44°36' W 124°00'0 0.0 120 / 51015.6 3.2-0.2
2020-Jan-17 09:00N 44°36' W 124°00'0 0.0 080 / 61014.9 3.1-0.2
2020-Jan-17 08:00N 44°36' W 124°00'0 0.0 080 / 51014.7 3.4-0.0
2020-Jan-17 07:00N 44°36' W 124°00'0 0.0 160 / 81014.1 2.6-0.5
2020-Jan-17 06:00N 44°36' W 124°00'0 0.0 130 / 71012.8 2.5-0.5
2020-Jan-17 05:00N 44°36' W 124°00'0 0.0 110 / 61011.8 3.0-0.1
2020-Jan-17 04:00N 44°36' W 124°00'0 0.0 120 / 71011.1 3.3 0.3
2020-Jan-17 03:00N 44°36' W 124°00'0 0.0 110 / 61010.3 3.8 0.8
2020-Jan-17 02:00N 44°36' W 124°00'0 0.0 110 / 41009.6 4.4 1.1
2020-Jan-17 01:00N 44°36' W 124°00'0 0.0 080 / 41008.9 6.1 1.1
2020-Jan-17 00:00N 44°36' W 124°00'0 0.0 310 / 61008.1 7.5-2.2
2020-Jan-16 23:00N 44°36' W 124°00'0 0.0 280 / 51007.3 7.5-0.6
2020-Jan-16 22:00N 44°36' W 124°00'0 0.0 230 / 51006.4 8.2 0.2
2020-Jan-16 21:00N 44°36' W 124°00'0 0.0 350 / 11006.3 7.9-1.0
2020-Jan-16 20:00N 44°36' W 124°00'0 0.0 130 / 31006.4 6.7 1.2
2020-Jan-16 19:00N 44°36' W 124°00'0 0.0 140 / 41006.5 5.5 2.0
2020-Jan-16 18:00N 44°36' W 124°00'0 0.0 120 / 81006.4 4.2 0.9
2020-Jan-16 17:00N 44°36' W 124°00'0 0.0 110 / 71006.0 3.4 0.4
2020-Jan-16 16:00N 44°36' W 124°00'0 0.0 090 / 91005.0 3.0-0.0
2020-Jan-16 15:00N 44°36' W 124°00'0 0.0 110 / 81004.5 3.5 0.5
2020-Jan-16 14:00N 44°36' W 124°00'0 0.0 180 / 11004.4 4.2 0.9
2020-Jan-16 13:00N 44°36' W 124°00'0 0.0 100 / 51003.5 4.0 0.6
2020-Jan-16 12:00N 44°36' W 124°00'0 0.0 110 / 61003.6 4.1 0.6
2020-Jan-16 11:00N 44°36' W 124°00'0 0.0 160 / 41003.6 4.3 0.9
2020-Jan-16 10:00N 44°36' W 124°00'0 0.0 180 / 71002.9 4.5 1.0
2020-Jan-16 09:00N 44°36' W 124°00'0 0.0 140 / 81002.0 4.6 1.1
2020-Jan-16 08:00N 44°36' W 124°00'0 0.0 090 / 71001.8 4.7 1.2
2020-Jan-16 07:00N 44°36' W 124°00'0 0.0 160 / 101001.7 4.8 1.2
2020-Jan-16 06:00N 44°36' W 124°00'0 0.0 130 / 61001.0 4.8 1.2
2020-Jan-16 05:00N 44°36' W 124°00'0 0.0 160 / 101000.3 4.8 1.1
2020-Jan-16 04:00N 44°36' W 124°00'0 0.0 160 / 111000.2 5.2 1.3
2020-Jan-16 03:00N 44°36' W 124°00'0 0.0 160 / 14999.6 5.6 1.7
2020-Jan-16 02:00N 44°36' W 124°00'0 0.0 160 / 8999.1 5.8 1.8
2020-Jan-16 01:00N 44°36' W 124°00'0 0.0 160 / 18997.9 5.7 1.1
2020-Jan-16 00:00N 44°36' W 124°00'0 0.0 150 / 14998.1 5.5 1.3
2020-Jan-15 23:00N 44°36' W 124°00'0 0.0 140 / 14998.0 5.0 1.0
2020-Jan-15 22:00N 44°36' W 124°00'0 0.0 160 / 22998.3 5.7 2.2
2020-Jan-15 21:00N 44°36' W 124°00'0 0.0 170 / 14999.0 6.7 1.9
2020-Jan-15 20:00N 44°36' W 124°00'0 0.0 150 / 17998.5 7.9-0.6
2020-Jan-15 19:00N 44°36' W 124°00'0 0.0 150 / 241000.1 8.6-1.9
2020-Jan-15 18:00N 44°36' W 124°00'0 0.0 150 / 201002.4 7.3-2.3
2020-Jan-15 17:00N 44°36' W 124°00'0 0.0 130 / 151004.5 6.5-2.0
2020-Jan-15 16:00N 44°36' W 124°00'0 0.0 130 / 191006.3 6.2-1.6
2020-Jan-15 15:00N 44°36' W 124°00'0 0.0 130 / 191008.1 5.7-1.4
2020-Jan-15 14:00N 44°36' W 124°00'0 0.0 120 / 151009.7 5.1-1.0
2020-Jan-15 13:00N 44°36' W 124°00'0 0.0 120 / 161011.3 4.2-1.3
2020-Jan-15 12:00N 44°36' W 124°00'0 0.0 090 / 111013.0 3.1-2.7
2020-Jan-15 11:00N 44°36' W 124°00'0 0.0 100 / 91014.6 3.0-2.3
2020-Jan-15 10:00N 44°36' W 124°00'0 0.0 110 / 101016.0 3.2-2.0
2020-Jan-15 09:00N 44°36' W 124°00'0 0.0 080 / 81016.8 3.1-2.0
2020-Jan-15 08:00N 44°36' W 124°00'0 0.0 090 / 81018.0 2.6-2.2
2020-Jan-15 07:00N 44°36' W 124°00'0 0.0 090 / 81018.9 2.7-2.3
2020-Jan-15 06:00N 44°36' W 124°00'0 0.0 130 / 71019.6 3.1-2.4
2020-Jan-15 05:00N 44°36' W 124°00'0 0.0 120 / 91019.8 2.1-1.8
2020-Jan-15 04:00N 44°36' W 124°00'0 0.0 100 / 61020.3 2.3-1.7
2020-Jan-15 03:00N 44°36' W 124°00'0 0.0 070 / 51020.6 2.4-1.3
2020-Jan-15 02:00N 44°36' W 124°00'0 0.0 100 / 61020.4 2.7-0.9
2020-Jan-15 01:00N 44°36' W 124°00'0 0.0 090 / 51020.4 3.4-1.6
2020-Jan-15 00:00N 44°36' W 124°00'0 0.0 200 / 71020.4 3.9-2.8
2020-Jan-14 23:00N 44°36' W 124°00'0 0.0 280 / 131020.5 3.6-1.4
2020-Jan-14 22:00N 44°36' W 124°00'0 0.0 330 / 51019.9 4.0-1.8
2020-Jan-14 21:00N 44°36' W 124°00'0 0.0 300 / 81019.3 5.5-4.6
2020-Jan-14 20:00N 44°36' W 124°00'0 0.0 310 / 101019.4 4.3-2.6
2020-Jan-14 19:00N 44°36' W 124°00'0 0.0 010 / 81019.7 3.1-1.7
2020-Jan-14 18:00N 44°36' W 124°00'0 0.0 340 / 121018.8 3.8-2.0
2020-Jan-14 17:00N 44°36' W 124°00'0 0.0 330 / 91017.7 4.3-1.3
2020-Jan-14 16:00N 44°36' W 124°00'0 0.0 300 / 131016.0 5.8-2.0
2020-Jan-14 15:00N 44°36' W 124°00'0 0.0 010 / 61015.5 4.8-0.5
2020-Jan-14 14:00N 44°36' W 124°00'0 0.0 350 / 91014.9 4.7-0.7
2020-Jan-14 13:00N 44°36' W 124°00'0 0.0 310 / 71013.8 5.4-0.7
2020-Jan-14 12:00N 44°36' W 124°00'0 0.0 290 / 131013.4 5.1-0.1
2020-Jan-14 11:00N 44°36' W 124°00'0 0.0 320 / 91013.4 4.8 0.6
2020-Jan-14 10:00N 44°36' W 124°00'0 0.0 270 / 171012.5 6.2 0.3
2020-Jan-14 09:00N 44°36' W 124°00'0 0.0 100 / 81012.2 3.9 1.0
2020-Jan-14 08:00N 44°36' W 124°00'0 0.0 110 / 61012.4 4.1 0.5
2020-Jan-14 07:00N 44°36' W 124°00'0 0.0 340 / 101012.8 3.4-0.2
2020-Jan-14 06:00N 44°36' W 124°00'0 0.0 340 / 101012.3 4.4 0.9
2020-Jan-14 05:00N 44°36' W 124°00'0 0.0 150 / 41011.7 5.3 2.0
2020-Jan-14 04:00N 44°36' W 124°00'0 0.0 130 / 31011.6 4.9 2.1
2020-Jan-14 03:00N 44°36' W 124°00'0 0.0 120 / 31011.4 4.7 1.8
2020-Jan-14 02:00N 44°36' W 124°00'0 0.0 120 / 21011.1 4.5 1.9
2020-Jan-14 01:00N 44°36' W 124°00'0 0.0 150 / 31010.8 4.2 1.6
2020-Jan-14 00:00N 44°36' W 124°00'0 0.0 150 / 81010.4 4.0 1.3
2020-Jan-13 23:00N 44°36' W 124°00'0 0.0 100 / 111010.0 3.5 0.7
2020-Jan-13 22:00N 44°36' W 124°00'0 0.0 110 / 61009.3 3.4 0.5
2020-Jan-13 21:00N 44°36' W 124°00'0 0.0 090 / 91009.6 3.5 0.6
2020-Jan-13 20:00N 44°36' W 124°00'0 0.0 090 / 81010.7 4.0 1.0
2020-Jan-13 19:00N 44°36' W 124°00'0 0.0 120 / 51011.8 4.5 1.4
2020-Jan-13 18:00N 44°36' W 124°00'0 0.0 200 / 31012.8 4.8 1.2
2020-Jan-13 17:00N 44°36' W 124°00'0 0.0 220 / 81013.2 5.1 0.7
2020-Jan-13 16:00N 44°36' W 124°00'0 0.0 280 / 141013.3 6.2 0.3
2020-Jan-13 15:00N 44°36' W 124°00'0 0.0 230 / 131012.8 7.5 1.3
2020-Jan-13 14:00N 44°36' W 124°00'0 0.0 280 / 81014.2 6.5 0.9
2020-Jan-13 13:00N 44°36' W 124°00'0 0.0 270 / 121014.4 7.1 1.7
2020-Jan-13 12:00N 44°36' W 124°00'0 0.0 300 / 131014.9 7.1 0.5
2020-Jan-13 11:00N 44°36' W 124°00'0 0.0 300 / 161015.2 7.2 0.8
2020-Jan-13 10:00N 44°36' W 124°00'0 0.0 280 / 151015.1 7.3 0.1
2020-Jan-13 09:00N 44°36' W 124°00'0 0.0 270 / 191014.8 7.2 0.2
2020-Jan-13 08:00N 44°36' W 124°00'0 0.0 290 / 151014.5 6.9-0.1
2020-Jan-13 07:00N 44°36' W 124°00'0 0.0 280 / 151014.6 7.5-0.5
2020-Jan-13 06:00N 44°36' W 124°00'0 0.0 280 / 131014.4 7.0 0.5
2020-Jan-13 05:00N 44°36' W 124°00'0 0.0 270 / 141013.9 7.1-0.5
2020-Jan-13 04:00N 44°36' W 124°00'0 0.0 280 / 101013.8 7.5-1.9
2020-Jan-13 03:00N 44°36' W 124°00'0 0.0 290 / 141013.5 7.2-0.3
2020-Jan-13 02:00N 44°36' W 124°00'0 0.0 270 / 181013.1 6.2-1.4
2020-Jan-13 01:00N 44°36' W 124°00'0 0.0 320 / 201012.7 6.1-0.7
2020-Jan-13 00:00N 44°36' W 124°00'0 0.0 310 / 181012.3 7.2-0.3
2020-Jan-12 23:00N 44°36' W 124°00'0 0.0 320 / 201011.8 7.7-0.8
2020-Jan-12 22:00N 44°36' W 124°00'0 0.0 310 / 201010.7 8.1 1.3
2020-Jan-12 21:00N 44°36' W 124°00'0 0.0 280 / 161009.9 8.0 1.9
2020-Jan-12 20:00N 44°36' W 124°00'0 0.0 300 / 201009.7 8.5 3.0
2020-Jan-12 19:00N 44°36' W 124°00'0 0.0 270 / 231009.7 8.0 4.3
2020-Jan-12 18:00N 44°36' W 124°00'0 0.0 250 / 141010.4 9.6 4.1
2020-Jan-12 17:00N 44°36' W 124°00'0 0.0 270 / 221010.6 8.0 3.5
2020-Jan-12 16:00N 44°36' W 124°00'0 0.0 270 / 181010.5 9.3 4.0
2020-Jan-12 15:00N 44°36' W 124°00'0 0.0 230 / 151010.3 9.0 4.8
2020-Jan-12 14:00N 44°36' W 124°00'0 0.0 240 / 151011.4 10.1 5.7
2020-Jan-12 13:00N 44°36' W 124°00'0 0.0 240 / 181011.8 9.6 4.7
2020-Jan-12 12:00N 44°36' W 124°00'0 0.0 260 / 141012.9 9.8 5.6
2020-Jan-12 11:00N 44°36' W 124°00'0 0.0 270 / 231013.6 9.4 4.4
2020-Jan-12 10:00N 44°36' W 124°00'0 0.0 240 / 131014.8 9.9 5.7
2020-Jan-12 09:00N 44°36' W 124°00'0 0.0 250 / 221014.7 9.3 5.7
2020-Jan-12 08:00N 44°36' W 124°00'0 0.0 210 / 151016.0 9.1 5.3
2020-Jan-12 07:00N 44°36' W 124°00'0 0.0 240 / 121017.4 9.2 4.4
2020-Jan-12 06:00N 44°36' W 124°00'0 0.0 240 / 141018.3 8.9 4.2
2020-Jan-12 05:00N 44°36' W 124°00'0 0.0 260 / 121019.2 8.4 3.7
2020-Jan-12 04:00N 44°36' W 124°00'0 0.0 270 / 171019.9 7.8 2.6
2020-Jan-12 03:00N 44°36' W 124°00'0 0.0 270 / 121020.7 7.9 3.5
2020-Jan-12 02:00N 44°36' W 124°00'0 0.0 280 / 221020.6 7.9 3.1
2020-Jan-12 01:00N 44°36' W 124°00'0 0.0 260 / 111021.1 8.9 4.1
2020-Jan-12 00:00N 44°36' W 124°00'0 0.0 270 / 111022.3 7.8 3.8
2020-Jan-11 23:00N 44°36' W 124°00'0 0.0 250 / 71022.3 9.0 3.3
2020-Jan-11 22:00N 44°36' W 124°00'0 0.0 290 / 121022.1 8.9 0.8
2020-Jan-11 21:00N 44°36' W 124°00'   280 / 151021.5 9.3 1.8

Dump ship's entire track history